Time;durP1;ratioP1;P1;durP2;ratioP2;P2;SDS_P1;SDS_P2;PMS_P1;PMS_P2;Temp;Humidity;BMP_temperature;BMP_pressure;BME280_temperature;BME280_humidity;BME280_pressure;Samples;Min_cycle;Max_cycle;Signal;HPM_P1;HPM_P2
2022/05/06 00:02:21;;;;;;;;;;;;;;;8.78;62.25;101546.59;1740365;81;20898;-81
2022/05/06 00:04:48;;;;;;;6.75;5.80;;;;;;;8.75;62.66;101549.58;1732444;81;20104;-83
2022/05/06 00:07:14;;;;;;;8.08;6.62;;;;;;;8.69;62.29;101550.40;1737096;81;21005;-84
2022/05/06 00:09:42;;;;;;;5.83;5.22;;;;;;;8.63;62.34;101552.94;1736209;82;21069;-84
2022/05/06 00:12:18;;;;;;;5.85;5.25;;;;;;;8.56;62.36;101551.16;1751594;81;21030;-83
2022/05/06 00:14:40;;;;;;;5.10;4.65;;;;;;;8.52;62.34;101548.13;1735348;81;21103;-83
2022/05/06 00:17:06;;;;;;;5.30;4.45;;;;;;;8.47;62.42;101553.24;1729180;81;20997;-82
2022/05/06 00:19:33;;;;;;;7.27;6.20;;;;;;;8.43;62.43;101555.36;1738441;81;21085;-82
2022/05/06 00:21:59;;;;;;;5.42;4.90;;;;;;;8.40;62.45;101559.63;1744588;81;21037;-80
2022/05/06 00:24:25;;;;;;;5.67;5.17;;;;;;;8.35;62.54;101566.03;1733231;81;20985;-80
2022/05/06 00:26:51;;;;;;;6.10;5.50;;;;;;;8.33;62.54;101555.27;1737012;81;20970;-82
2022/05/06 00:29:17;;;;;;;5.73;5.13;;;;;;;8.29;62.55;101558.25;1702209;82;20940;-84
2022/05/06 00:31:43;;;;;;;8.27;5.97;;;;;;;8.26;62.64;101551.35;1696870;83;21454;-83
2022/05/06 00:34:10;;;;;;;11.63;6.70;;;;;;;8.24;62.66;101555.63;1697970;83;20941;-82
2022/05/06 00:36:36;;;;;;;7.12;4.10;;;;;;;8.18;62.66;101554.71;1706188;83;21048;-80
2022/05/06 00:39:03;;;;;;;4.53;4.13;;;;;;;8.12;62.62;101554.66;1712224;83;21037;-80
2022/05/06 00:41:34;;;;;;;6.25;4.95;;;;;;;8.07;62.71;101553.33;1712182;83;21070;-80
2022/05/06 00:44:00;;;;;;;8.43;5.40;;;;;;;8.06;62.79;101558.03;1701354;83;21091;-81
2022/05/06 00:46:26;;;;;;;7.80;6.37;;;;;;;8.05;62.75;101567.04;1696108;83;20940;-81
2022/05/06 00:48:55;;;;;;;;;;;;;;;7.96;62.72;101569.96;1692518;83;20996;-82
2022/05/06 00:51:22;;;;;;;6.30;5.28;;;;;;;7.88;63.15;101570.30;1691644;84;20134;-83
2022/05/06 00:53:48;;;;;;;7.10;5.30;;;;;;;7.84;62.79;101571.12;1688024;83;21048;-82
2022/05/06 00:56:17;;;;;;;4.85;4.33;;;;;;;7.80;62.82;101571.10;1692282;83;21066;-82
2022/05/06 00:58:45;;;;;;;5.03;4.45;;;;;;;7.77;62.84;101564.20;1692090;83;21056;-80
2022/05/06 01:01:12;;;;;;;5.78;5.28;;;;;;;7.74;62.88;101561.60;1681512;83;21055;-79
2022/05/06 01:03:41;;;;;;;4.70;4.30;;;;;;;7.71;62.93;101561.99;1690859;83;21060;-83
2022/05/06 01:06:13;;;;;;;4.70;4.30;;;;;;;7.64;62.86;101567.49;1690871;83;20932;-82
2022/05/06 01:08:38;;;;;;;4.03;3.50;;;;;;;7.52;62.78;101569.50;1690172;83;21093;-80
2022/05/06 01:11:06;;;;;;;4.40;4.00;;;;;;;7.43;62.89;101566.81;1699085;83;21311;-82
2022/05/06 01:13:44;;;;;;;9.83;6.33;;;;;;;7.39;62.96;101566.76;1700941;83;21005;-81
2022/05/06 01:16:12;;;;;;;6.00;5.28;;;;;;;7.36;63.08;101572.73;1696754;83;21017;-82
2022/05/06 01:18:40;;;;;;;6.15;5.10;;;;;;;7.34;63.17;101567.12;1691898;83;21003;-80
2022/05/06 01:21:06;;;;;;;7.58;5.47;;;;;;;7.34;63.20;101566.70;559788;82;10017254;-80
2022/05/06 01:23:34;;;;;;;7.28;6.10;;;;;;;7.30;63.13;101563.65;1633365;86;20981;-80
2022/05/06 01:26:00;;;;;;;5.90;5.30;;;;;;;7.28;63.23;101571.77;1654889;85;20973;-80
2022/05/06 01:28:27;;;;;;;6.83;5.27;;;;;;;7.24;63.20;101572.61;1657919;85;20942;-80
2022/05/06 01:31:01;;;;;;;7.50;6.08;;;;;;;7.21;63.22;101574.72;1670989;85;21612;-82
2022/05/06 01:33:29;;;;;;;6.72;5.90;;;;;;;7.18;63.29;101577.67;1675241;85;20911;-82
2022/05/06 01:36:03;;;;;;;6.78;6.17;;;;;;;7.16;63.21;101583.21;1700385;83;20950;-81
2022/05/06 01:38:49;;;;;;;6.33;5.72;;;;;;;7.08;63.23;101586.97;1675097;85;21463;-80
2022/05/06 01:41:26;;;;;;;5.72;5.15;;;;;;;7.04;63.27;101583.05;1637747;85;21467;-81
2022/05/06 01:44:03;;;;;;;5.17;4.78;;;;;;;6.97;63.31;101585.95;1679803;83;20931;-81
2022/05/06 01:46:29;;;;;;;6.53;5.92;;;;;;;6.93;63.32;101588.90;1678357;85;20938;-81
2022/05/06 01:48:56;;;;;;;4.95;4.55;;;;;;;6.88;63.28;101596.09;1673983;85;20922;-80
2022/05/06 01:51:23;;;;;;;7.58;5.17;;;;;;;6.80;63.33;101598.55;1659909;83;20899;-80
2022/05/06 01:53:50;;;;;;;;;;;;;;;6.78;63.40;101600.23;1654765;86;20942;-80
2022/05/06 01:56:20;;;;;;;5.40;4.47;;;;;;;6.77;63.73;101601.08;1652565;85;20110;-80
2022/05/06 01:58:48;;;;;;;5.03;4.47;;;;;;;6.73;63.39;101608.33;1652148;85;20986;-80
2022/05/06 02:01:14;;;;;;;5.37;4.87;;;;;;;6.68;63.41;101612.53;1684765;83;20997;-80
2022/05/06 02:06:26;;;;;;;6.97;6.35;;;;;;;6.61;63.54;101612.84;1661178;83;21379;-82
2022/05/06 02:08:53;;;;;;;7.30;6.60;;;;;;;6.58;63.52;101613.22;1676447;83;21545;-83
2022/05/06 02:11:19;;;;;;;5.80;5.23;;;;;;;6.53;63.56;101613.56;1706132;83;21108;-83
2022/05/06 02:13:45;;;;;;;6.90;6.27;;;;;;;6.48;63.54;101617.34;1651166;85;20990;-83
2022/05/06 02:16:11;;;;;;;6.08;5.53;;;;;;;6.45;63.57;101618.58;1689482;83;21125;-81
2022/05/06 02:18:37;;;;;;;5.50;5.00;;;;;;;6.43;63.58;101617.68;1676856;85;21424;-80
2022/05/06 02:21:03;;;;;;;7.10;5.57;;;;;;;6.36;63.57;101612.41;1690287;83;20958;-81
2022/05/06 02:23:30;;;;;;;5.50;5.00;;;;;;;6.30;63.64;101620.45;1651289;85;21145;-81
2022/05/06 02:25:56;;;;;;;6.85;6.28;;;;;;;6.29;63.72;101620.42;1684430;83;20974;-85
2022/05/06 02:28:24;;;;;;;6.78;6.08;;;;;;;6.27;63.86;101617.83;1671360;84;21065;-81
2022/05/06 02:33:35;;;;;;;5.78;5.22;;;;;;;6.30;64.21;101615.73;1691801;83;20212;-81
2022/05/06 02:36:03;;;;;;;6.83;6.10;;;;;;;6.24;63.76;101617.78;1669131;85;20892;-82
2022/05/06 02:38:30;;;;;;;5.03;4.60;;;;;;;6.22;63.87;101622.47;1685856;84;21022;-83
2022/05/06 02:40:56;;;;;;;4.90;4.50;;;;;;;6.20;63.84;101617.73;1693539;83;21079;-83
2022/05/06 02:43:22;;;;;;;4.75;4.35;;;;;;;6.17;63.92;101618.95;1651669;86;21193;-82
2022/05/06 02:45:50;;;;;;;6.20;5.60;;;;;;;6.17;63.85;101612.54;1669272;84;20955;-82
2022/05/06 02:48:16;;;;;;;7.60;6.17;;;;;;;6.13;63.98;101612.90;1709786;82;21096;-81
2022/05/06 02:50:43;;;;;;;7.05;6.37;;;;;;;6.11;63.94;101612.42;1699250;82;21532;-82
2022/05/06 02:53:09;;;;;;;7.20;6.47;;;;;;;6.08;64.02;101620.07;1679947;82;21040;-82
2022/05/06 02:55:35;;;;;;;7.03;6.37;;;;;;;6.09;64.04;101625.66;1650583;84;21058;-82
2022/05/06 02:58:02;;;;;;;7.28;6.35;;;;;;;6.07;64.09;101627.33;1648618;86;21705;-81
2022/05/06 03:00:29;;;;;;;5.40;4.90;;;;;;;6.06;64.11;101625.17;1676465;85;21095;-82
2022/05/06 03:02:56;;;;;;;9.70;6.55;;;;;;;6.05;64.04;101630.28;1708372;82;21495;-82
2022/05/06 03:05:24;;;;;;;6.35;5.50;;;;;;;6.04;64.17;101628.55;1687675;84;21060;-82
2022/05/06 03:07:51;;;;;;;5.95;5.35;;;;;;;6.00;64.07;101634.05;1710007;82;21039;-82
2022/05/06 03:10:17;;;;;;;;;;;;;;;5.94;64.09;101632.65;1697981;84;21031;-82
2022/05/06 03:12:47;;;;;;;7.95;5.85;;;;;;;5.91;64.41;101635.16;1704397;84;20207;-82
2022/05/06 03:15:13;;;;;;;5.60;4.97;;;;;;;5.85;64.11;101633.72;1641347;86;21024;-82
2022/05/06 03:17:39;;;;;;;5.53;5.00;;;;;;;5.81;64.09;101636.64;1704471;83;21647;-82
2022/05/06 03:20:08;;;;;;;6.42;5.53;;;;;;;5.76;64.07;101645.08;1640148;87;21516;-82
2022/05/06 03:22:46;;;;;;;6.40;5.50;;;;;;;5.72;64.14;101649.28;1703235;84;21281;-82
2022/05/06 03:25:13;;;;;;;6.67;5.30;;;;;;;5.68;64.15;101651.79;1720732;82;20908;-82
2022/05/06 03:30:27;;;;;;;4.67;4.28;;;;;;;5.61;64.13;101646.95;1670121;85;21020;-81
2022/05/06 03:32:55;;;;;;;4.55;4.15;;;;;;;5.54;64.14;101643.80;1705925;84;20954;-80
2022/05/06 03:35:21;;;;;;;6.20;5.60;;;;;;;5.51;64.21;101647.58;1680531;84;20893;-81
2022/05/06 03:37:47;;;;;;;5.87;4.22;;;;;;;5.52;64.32;101650.59;1675891;85;21012;-82
2022/05/06 03:40:14;;;;;;;4.12;3.75;;;;;;;5.50;64.33;101650.56;1671524;85;20886;-82
2022/05/06 03:42:43;;;;;;;3.42;3.12;;;;;;;5.49;64.25;101662.08;1707113;84;20946;-81
2022/05/06 03:45:10;;;;;;;3.90;3.60;;;;;;;5.45;64.31;101661.56;1704835;82;20992;-82
2022/05/06 03:47:37;;;;;;;4.62;4.22;;;;;;;5.44;64.32;101658.55;1670597;85;20901;-80
2022/05/06 03:52:49;;;;;;;3.93;3.63;;;;;;;5.42;64.38;101663.64;1679123;84;20965;-81
2022/05/06 03:55:18;;;;;;;4.67;3.30;;;;;;;5.45;64.45;101667.55;1674345;84;20917;-81
2022/05/06 03:57:44;;;;;;;5.33;4.83;;;;;;;5.48;64.48;101677.88;1765689;81;20944;-81
2022/05/06 04:00:12;;;;;;;5.03;4.62;;;;;;;5.50;64.51;101672.38;1730446;81;21052;-81
2022/05/06 04:02:38;;;;;;;5.37;4.97;;;;;;;5.59;64.65;101679.40;1670747;84;21044;-84
2022/05/06 04:05:05;;;;;;;4.95;4.55;;;;;;;5.71;64.74;101683.52;1700436;84;20966;-82
2022/05/06 04:07:31;;;;;;;4.12;3.83;;;;;;;5.90;64.86;101682.19;1669300;84;21190;-81
2022/05/06 04:09:59;;;;;;;4.30;3.95;;;;;;;6.10;64.88;101686.02;1674485;85;21078;-77
2022/05/06 04:12:25;;;;;;;5.17;4.67;;;;;;;6.23;64.85;101687.13;1702123;84;20953;-78
2022/05/06 04:14:52;;;;;;;5.42;4.92;;;;;;;6.36;64.96;101696.76;1673507;85;21060;-79
2022/05/06 04:17:20;;;;;;;5.60;5.10;;;;;;;6.50;64.97;101697.02;1730430;82;21505;-78
2022/05/06 04:25:18;;;;;;;5.37;4.72;;;;;;;6.87;65.06;101698.48;1673476;85;21179;-78
2022/05/06 04:27:45;;;;;;;7.55;6.62;;;;;;;6.97;65.00;101697.80;1733568;82;21079;-77
2022/05/06 04:30:12;;;;;;;6.40;5.83;;;;;;;7.05;65.04;101690.20;1670189;84;21124;-77
2022/05/06 04:32:38;;;;;;;6.53;5.85;;;;;;;7.10;64.97;101693.30;1702938;82;21244;-77
2022/05/06 04:35:08;;;;;;;6.80;5.78;;;;;;;7.14;65.07;101692.50;1717991;81;22372;-77
2022/05/06 04:37:35;;;;;;;8.05;6.15;;;;;;;7.21;65.17;101696.03;1707463;82;21025;-78
2022/05/06 04:40:05;;;;;;;7.22;6.20;;;;;;;7.31;65.19;101701.73;1695022;81;20933;-78
2022/05/06 04:42:31;;;;;;;8.45;7.00;;;;;;;7.38;65.19;101699.69;1675117;82;21410;-76
2022/05/06 04:44:57;;;;;;;8.00;6.37;;;;;;;7.47;65.19;101702.39;1736719;81;20991;-77
2022/05/06 04:47:23;;;;;;;7.65;6.58;;;;;;;7.52;65.22;101696.89;1729452;81;20985;-78
2022/05/06 04:49:49;;;;;;;8.57;7.20;;;;;;;7.58;65.29;101693.12;1731375;81;21353;-77
2022/05/06 04:52:16;;;;;;;9.45;8.03;;;;;;;7.69;65.31;101701.41;1731106;81;21349;-79
2022/05/06 04:54:42;;;;;;;11.40;8.03;;;;;;;7.78;65.39;101697.24;1696977;82;21183;-77
2022/05/06 04:57:09;;;;;;;9.15;7.28;;;;;;;7.89;65.43;101698.63;1670608;84;21552;-77
2022/05/06 04:59:35;;;;;;;8.27;7.47;;;;;;;8.02;65.52;101698.36;1678410;84;21018;-77
2022/05/06 05:02:02;;;;;;;9.63;8.70;;;;;;;8.14;65.60;101702.38;1701768;84;21359;-77
2022/05/06 05:04:31;;;;;;;9.95;8.60;;;;;;;8.32;65.72;101700.42;1710437;82;21096;-77
2022/05/06 05:06:57;;;;;;;10.40;8.27;;;;;;;8.70;65.89;101707.26;1695536;84;20917;-77
2022/05/06 05:09:23;;;;;;;8.83;8.03;;;;;;;9.16;66.03;101707.19;1660528;85;21684;-79
2022/05/06 05:11:49;;;;;;;9.40;8.40;;;;;;;9.68;66.04;101704.91;1700876;84;20898;-77
2022/05/06 05:14:15;;;;;;;8.97;7.70;;;;;;;10.21;66.11;101711.17;1705294;84;21089;-77
2022/05/06 05:16:42;;;;;;;12.18;7.45;;;;;;;10.71;66.17;101718.58;1704934;84;21009;-78
2022/05/06 05:19:08;;;;;;;10.83;7.67;;;;;;;11.34;66.30;101711.64;1721951;82;21047;-79
2022/05/06 05:21:33;;;;;;;7.97;6.63;;;;;;;12.06;66.28;101707.09;1727751;82;20925;-78
2022/05/06 05:23:59;;;;;;;9.13;6.27;;;;;;;12.75;66.19;101705.78;1717707;82;21726;-80
2022/05/06 05:26:25;;;;;;;10.00;6.00;;;;;;;13.43;66.00;101710.81;1663878;85;21729;-78
2022/05/06 05:28:52;;;;;;;9.83;6.13;;;;;;;14.09;65.81;101711.30;1641663;82;5000577;-78
2022/05/06 05:31:18;;;;;;;8.80;5.58;;;;;;;14.65;65.52;101715.72;1611983;85;21631;-78
2022/05/06 05:33:52;;;;;;;7.22;5.70;;;;;;;15.04;65.16;101712.93;1704749;83;20945;-78
2022/05/06 05:36:19;;;;;;;9.38;6.10;;;;;;;15.34;65.01;101706.30;1654242;85;20979;-79
2022/05/06 05:38:45;;;;;;;9.33;6.55;;;;;;;15.74;64.95;101709.45;1650205;84;26538;-79
2022/05/06 05:41:11;;;;;;;6.40;5.80;;;;;;;16.11;64.70;101713.03;1660685;85;21594;-80
2022/05/06 05:49:07;;;;;;;6.47;5.15;;;;;;;17.22;64.22;101708.18;1698649;82;21548;-79
2022/05/06 05:51:34;;;;;;;7.30;5.33;;;;;;;17.51;64.03;101714.81;1637525;84;2313279;-79
2022/05/06 05:54:00;;;;;;;7.80;5.20;;;;;;;17.86;64.00;101714.28;1679463;84;21046;-79
2022/05/06 05:56:26;;;;;;;7.30;4.50;;;;;;;18.14;63.59;101715.66;1688459;83;21088;-80
2022/05/06 05:58:52;;;;;;;7.97;5.03;;;;;;;18.38;63.48;101712.27;1713653;82;21029;-80
2022/05/06 06:01:21;;;;;;;7.65;4.75;;;;;;;18.71;63.56;101714.77;1689912;82;20965;-80
2022/05/06 06:03:49;;;;;;;7.67;5.10;;;;;;;19.10;63.43;101712.56;1709823;83;21005;-80
2022/05/06 06:06:15;;;;;;;7.33;4.95;;;;;;;19.44;63.21;101714.86;1711466;83;21667;-80
2022/05/06 06:08:42;;;;;;;14.60;5.15;;;;;;;19.82;62.82;101711.72;1709066;82;21609;-81
2022/05/06 06:11:08;;;;;;;9.48;5.60;;;;;;;20.01;62.28;101712.34;1707728;83;21775;-80
2022/05/06 06:13:34;;;;;;;7.23;4.63;;;;;;;20.02;62.03;101707.03;1710602;83;20930;-80
2022/05/06 06:16:00;;;;;;;9.53;4.50;;;;;;;20.11;61.64;101706.69;1709892;83;21479;-79
2022/05/06 06:18:29;;;;;;;10.05;4.30;;;;;;;20.14;61.45;101708.34;1699571;82;21351;-79
2022/05/06 06:20:56;;;;;;;7.25;3.67;;;;;;;20.21;61.22;101711.13;1697988;83;21124;-80
2022/05/06 06:23:23;;;;;;;4.70;3.62;;;;;;;20.25;60.92;101709.25;1711081;83;21571;-80
2022/05/06 06:25:49;;;;;;;9.38;4.25;;;;;;;20.29;60.61;101711.66;1707727;82;21079;-79
2022/05/06 06:28:16;;;;;;;9.85;4.33;;;;;;;20.33;60.36;101708.00;1710701;83;21122;-81
2022/05/06 06:30:42;;;;;;;10.80;4.35;;;;;;;20.36;60.08;101709.66;1713007;82;21146;-81
2022/05/06 06:33:09;;;;;;;7.50;3.92;;;;;;;20.48;59.91;101711.37;1686466;82;21049;-80
2022/05/06 06:35:35;;;;;;;6.55;3.83;;;;;;;20.60;59.51;101715.29;1711548;83;21092;-79
2022/05/06 06:38:01;;;;;;;4.30;2.70;;;;;;;20.44;59.01;101705.84;1710959;83;21135;-80
2022/05/06 06:40:27;;;;;;;8.77;3.63;;;;;;;20.41;59.07;101705.11;1703662;83;21137;-80
2022/05/06 06:42:53;;;;;;;6.70;3.52;;;;;;;20.53;58.80;101710.34;1711244;83;21518;-80
2022/05/06 06:45:19;;;;;;;6.63;3.80;;;;;;;20.63;58.71;101709.91;1712483;82;20918;-80
2022/05/06 06:47:46;;;;;;;13.48;3.42;;;;;;;20.77;58.40;101707.58;1709538;83;21347;-80
2022/05/06 06:50:12;;;;;;;6.70;6.03;;;;;;;20.85;58.18;101707.23;1711650;83;20984;-80
2022/05/06 06:52:38;;;;;;;5.75;3.87;;;;;;;20.94;57.82;101709.94;1685876;83;22034;-79
2022/05/06 06:55:07;;;;;;;6.35;3.35;;;;;;;20.97;57.69;101711.13;1693385;83;21069;-80
2022/05/06 06:57:33;;;;;;;;;;;;;;;21.08;57.47;101709.77;1714000;83;21085;-80
2022/05/06 06:59:59;;;;;;;6.50;2.93;;;;;;;21.15;56.74;101712.53;1711507;83;20865;-79
2022/05/06 07:02:25;;;;;;;7.20;3.62;;;;;;;21.30;57.24;101717.63;1700897;82;21850;-79
2022/05/06 07:04:51;;;;;;;6.85;3.62;;;;;;;21.37;56.82;101717.73;1709127;83;21600;-79
2022/05/06 07:12:47;;;;;;;7.28;4.00;;;;;;;21.49;56.12;101717.66;1700655;83;21663;-82
2022/05/06 07:15:13;;;;;;;5.17;3.83;;;;;;;21.47;55.72;101721.67;1710621;83;20919;-81
2022/05/06 07:17:39;;;;;;;5.40;4.20;;;;;;;21.48;55.21;101702.78;1711435;83;21064;-81
2022/05/06 07:20:06;;;;;;;6.92;4.22;;;;;;;21.48;55.21;101702.78;1711102;83;22171;-81
2022/05/06 07:22:32;;;;;;;8.78;4.55;;;;;;;21.68;55.29;101720.33;1698573;82;21340;-80
2022/05/06 07:24:59;;;;;;;;;;;;;;;21.83;55.11;101723.59;1695265;83;21073;-81
2022/05/06 07:27:25;;;;;;;5.12;4.08;;;;;;;21.99;54.57;101731.63;1712240;82;20157;-80
2022/05/06 07:29:51;;;;;;;6.67;4.08;;;;;;;22.00;54.54;101731.55;1698045;82;21048;-80
2022/05/06 07:32:18;;;;;;;6.00;4.10;;;;;;;;;;1693799;83;21096;-79
2022/05/06 07:34:44;;;;;;;6.65;3.85;;;;;;;22.28;55.23;101731.17;1706806;83;21104;-79
2022/05/06 07:37:10;;;;;;;4.60;3.80;;;;;;;22.90;54.81;101731.67;1710413;83;21013;-77
2022/05/06 07:39:36;;;;;;;4.83;3.83;;;;;;;23.56;54.53;101724.75;1644051;86;21091;-78
2022/05/06 07:42:02;;;;;;;7.83;4.33;;;;;;;24.06;53.50;101727.77;1709168;83;20965;-78
2022/05/06 07:44:28;;;;;;;5.87;4.47;;;;;;;24.21;52.64;101732.69;1710207;83;21529;-78
2022/05/06 07:46:54;;;;;;;8.83;5.50;;;;;;;24.00;52.25;101733.39;1699861;82;21129;-78
2022/05/06 07:49:20;;;;;;;9.63;6.07;;;;;;;23.47;51.97;101738.41;1708313;83;21088;-79
2022/05/06 07:51:47;;;;;;;8.47;5.23;;;;;;;22.99;51.94;101720.67;1705947;82;22310;-78
2022/05/06 07:54:14;;;;;;;7.90;5.47;;;;;;;22.75;51.75;101737.23;1681366;85;21488;-77
2022/05/06 07:56:40;;;;;;;8.77;6.00;;;;;;;22.41;51.65;101736.69;1669238;85;21930;-80
2022/05/06 07:59:07;;;;;;;7.85;5.40;;;;;;;22.14;51.42;101736.22;1660089;85;21753;-78
2022/05/06 08:06:54;;;;;;;9.83;4.80;;;;;;;21.83;50.87;101732.81;1794269;79;20973;-77
2022/05/06 08:09:23;;;;;;;6.07;4.07;;;;;;;21.87;50.64;101735.67;1804996;77;21028;-77
2022/05/06 08:11:49;;;;;;;6.45;4.45;;;;;;;21.82;50.37;101736.37;1805740;78;20911;-77
2022/05/06 08:14:16;;;;;;;6.67;4.50;;;;;;;21.76;49.89;101744.54;1817310;77;21025;-77
2022/05/06 08:16:43;;;;;;;;;;;;;;;21.68;49.92;101741.39;1810216;77;21024;-78
2022/05/06 08:19:10;;;;;;;6.28;3.75;;;;;;;21.53;49.68;101742.06;1772810;80;20147;-78
2022/05/06 08:21:36;;;;;;;9.25;4.37;;;;;;;21.42;49.67;101739.90;1804172;78;20980;-78
2022/05/06 08:24:04;;;;;;;5.00;3.67;;;;;;;21.44;49.00;101735.42;1811053;78;21565;-78
2022/05/06 08:26:30;;;;;;;7.55;3.37;;;;;;;21.28;49.22;101739.20;1810021;79;20961;-78
2022/05/06 08:28:56;;;;;;;9.03;3.27;;;;;;;21.22;49.07;101730.71;1767077;79;21032;-78
2022/05/06 08:31:22;;;;;;;7.57;3.27;;;;;;;21.23;48.91;101733.74;1765100;79;20878;-78
2022/05/06 08:33:48;;;;;;;5.80;3.30;;;;;;;21.23;48.64;101740.31;1769816;80;21009;-78
2022/05/06 08:36:19;;;;;;;9.33;3.45;;;;;;;21.22;48.54;101740.78;1814022;78;21014;-78
2022/05/06 08:38:48;;;;;;;5.22;3.10;;;;;;;21.30;48.41;101740.45;1827756;78;21038;-80
2022/05/06 08:41:15;;;;;;;7.42;3.20;;;;;;;21.25;47.98;101745.91;1817672;78;21346;-79
2022/05/06 08:43:42;;;;;;;6.03;3.10;;;;;;;21.11;48.01;101749.09;1822549;78;20864;-79
2022/05/06 08:51:40;;;;;;;7.40;3.22;;;;;;;21.10;47.71;101751.31;1768108;80;20878;-77
2022/05/06 08:54:07;;;;;;;5.35;3.52;;;;;;;21.09;47.52;101747.44;1801661;79;20943;-76
2022/05/06 08:56:33;;;;;;;3.93;2.90;;;;;;;21.04;47.20;101746.31;1809914;79;20908;-77
2022/05/06 08:58:59;;;;;;;6.73;3.53;;;;;;;21.06;47.28;101745.79;1806238;79;21328;-77
2022/05/06 09:01:25;;;;;;;4.53;3.17;;;;;;;21.04;46.89;101737.56;1807717;79;21060;-77
2022/05/06 09:03:52;;;;;;;6.97;3.67;;;;;;;20.97;46.84;101736.11;1779744;79;21050;-77
2022/05/06 09:06:27;;;;;;;4.92;2.77;;;;;;;20.94;46.85;101738.86;1767386;80;21008;-77
2022/05/06 09:08:56;;;;;;;4.60;3.22;;;;;;;20.89;46.64;101739.51;1723562;82;20866;-79
2022/05/06 09:17:21;;;;;;;6.90;3.80;;;;;;;20.21;45.92;101743.97;1745038;81;21410;-78
2022/05/06 09:19:47;;;;;;;8.13;3.83;;;;;;;19.88;45.90;101741.28;1752007;81;21043;-77
2022/05/06 09:22:14;;;;;;;4.70;3.03;;;;;;;19.60;45.80;101739.67;1754062;81;21080;-77
2022/05/06 09:24:44;;;;;;;5.97;3.10;;;;;;;19.47;45.78;101737.05;1730640;81;21048;-77
2022/05/06 09:27:14;;;;;;;5.40;3.42;;;;;;;19.35;45.54;101736.16;1752245;81;20914;-77
2022/05/06 09:29:54;;;;;;;6.37;3.60;;;;;;;19.24;45.50;101743.53;1740361;81;21910;-78
2022/05/06 09:32:29;;;;;;;9.58;3.50;;;;;;;19.18;45.57;101742.01;1719283;81;21327;-77
2022/05/06 09:35:18;;;;;;;8.58;3.75;;;;;;;19.14;45.47;101742.56;1732531;81;21052;-77
2022/05/06 09:37:48;;;;;;;5.08;3.05;;;;;;;19.05;45.25;101748.56;1796406;77;20909;-77
2022/05/06 09:40:20;;;;;;;8.23;3.02;;;;;;;18.96;45.36;101737.07;1735245;81;20945;-77
2022/05/06 09:42:57;;;;;;;3.87;3.12;;;;;;;18.95;45.27;101729.66;1746264;81;20886;-77
2022/05/06 09:45:40;;;;;;;6.53;3.52;;;;;;;18.92;45.14;101735.00;1729093;81;21056;-77
2022/05/06 09:48:11;;;;;;;5.60;3.42;;;;;;;18.81;45.11;101734.50;1741250;81;21040;-77
2022/05/06 09:50:44;;;;;;;6.17;3.75;;;;;;;18.80;45.13;101736.71;1729060;81;20898;-77
2022/05/06 09:53:16;;;;;;;6.67;3.52;;;;;;;18.85;45.14;101736.97;1747397;81;20958;-77
2022/05/06 09:55:45;;;;;;;6.90;3.45;;;;;;;18.85;45.04;101734.34;1755755;81;20952;-77
2022/05/06 09:58:13;;;;;;;4.95;3.17;;;;;;;18.76;44.89;101737.72;1741117;81;21015;-77
2022/05/06 10:00:39;;;;;;;7.28;3.40;;;;;;;18.76;45.06;101745.58;1753739;81;20909;-77
2022/05/06 10:03:07;;;;;;;4.83;3.37;;;;;;;18.87;45.12;101739.99;1769150;78;20894;-79
2022/05/06 10:05:36;;;;;;;5.15;3.47;;;;;;;18.94;45.20;101738.44;1797819;79;21282;-77
2022/05/06 10:08:18;;;;;;;4.05;2.92;;;;;;;19.05;45.13;101735.01;1796358;79;20867;-77
2022/05/06 10:10:57;;;;;;;7.58;3.27;;;;;;;19.13;45.14;101735.61;1798329;79;20854;-77
2022/05/06 10:13:32;;;;;;;5.22;2.90;;;;;;;19.22;45.08;101729.66;1781393;79;20850;-77
2022/05/06 10:15:59;;;;;;;4.50;2.55;;;;;;;19.23;44.99;101727.43;1761010;79;20851;-77
2022/05/06 10:18:34;;;;;;;5.07;3.03;;;;;;;19.08;45.00;101729.66;1790149;79;20895;-77
2022/05/06 10:21:04;;;;;;;2.80;2.58;;;;;;;19.09;45.13;101727.44;1793304;79;20883;-77
2022/05/06 10:23:54;;;;;;;3.40;2.65;;;;;;;19.18;45.19;101719.72;1783834;79;21306;-77
2022/05/06 10:26:45;;;;;;;5.20;3.05;;;;;;;19.25;45.13;101720.34;1793722;79;20914;-77
2022/05/06 10:32:54;;;;;;;2.92;2.50;;;;;;;19.20;45.07;101712.66;1793771;78;20900;-77
2022/05/06 10:35:46;;;;;;;4.45;2.67;;;;;;;19.11;45.02;101709.04;1792322;78;20880;-77
2022/05/06 10:38:19;;;;;;;3.98;2.40;;;;;;;18.91;45.08;101716.25;1795417;79;20908;-78
2022/05/06 10:40:56;;;;;;;3.17;2.33;;;;;;;18.92;45.15;101707.94;1793598;78;20897;-78
2022/05/06 10:43:45;;;;;;;4.05;2.85;;;;;;;19.01;45.34;101703.25;1798797;78;20904;-78
2022/05/06 10:46:37;;;;;;;5.30;3.10;;;;;;;19.21;45.29;101705.65;1790563;78;20931;-77
2022/05/06 10:49:46;;;;;;;4.65;3.08;;;;;;;19.35;45.32;101695.05;1756752;81;20900;-76
2022/05/06 10:52:28;;;;;;;5.15;3.00;;;;;;;19.31;45.16;101700.45;1656636;83;20947;-76
2022/05/06 10:55:03;;;;;;;6.87;2.70;;;;;;;19.12;45.12;101699.81;1745231;79;21086;-76
2022/05/06 10:58:00;;;;;;;4.37;1.85;;;;;;;18.97;45.13;101699.02;1793078;79;21058;-77
2022/05/06 11:00:29;;;;;;;7.00;2.42;;;;;;;18.86;45.15;101697.20;1796339;79;20931;-77
2022/05/06 11:02:58;;;;;;;3.90;2.40;;;;;;;18.88;45.24;101695.84;1802027;77;20957;-77
2022/05/06 11:05:26;;;;;;;3.17;2.10;;;;;;;19.00;45.33;101687.12;1817845;77;21021;-77
2022/05/06 11:07:59;;;;;;;5.47;1.98;;;;;;;19.10;45.30;101688.52;1798711;77;20913;-77
2022/05/06 11:10:29;;;;;;;3.83;2.27;;;;;;;19.22;45.26;101687.70;1792673;79;21064;-76
2022/05/06 11:12:59;;;;;;;5.83;2.22;;;;;;;19.23;45.21;101689.41;1796414;79;20913;-77
2022/05/06 11:15:32;;;;;;;5.53;2.42;;;;;;;19.25;45.21;101690.18;1809213;78;20921;-76
2022/05/06 11:18:04;;;;;;;3.00;2.00;;;;;;;19.30;45.29;101681.70;1742161;80;21038;-76
2022/05/06 11:20:35;;;;;;;3.30;2.08;;;;;;;19.30;45.23;101682.55;1787917;78;21083;-76
2022/05/06 11:23:11;;;;;;;2.02;1.50;;;;;;;19.48;45.37;101673.17;1787070;78;20997;-77
2022/05/06 11:25:41;;;;;;;4.80;2.00;;;;;;;19.71;45.33;101673.69;1792385;79;21020;-77
2022/05/06 11:28:17;;;;;;;2.87;1.62;;;;;;;19.92;45.22;101682.50;1793816;79;21469;-76
2022/05/06 11:30:49;;;;;;;7.37;2.00;;;;;;;19.92;45.06;101673.31;1743590;79;20932;-76
2022/05/06 11:33:31;;;;;;;3.37;2.27;;;;;;;19.95;45.11;101678.45;1785940;78;20897;-76
2022/05/06 11:36:02;;;;;;;2.33;1.70;;;;;;;19.86;44.92;101678.34;1789790;78;20996;-76
2022/05/06 11:38:37;;;;;;;4.25;2.00;;;;;;;19.74;45.01;101684.08;1778286;78;20969;-77
2022/05/06 11:41:13;;;;;;;2.75;1.72;;;;;;;19.68;45.15;101675.11;1784322;78;21029;-77
2022/05/06 11:43:44;;;;;;;4.90;2.10;;;;;;;19.70;45.13;101673.28;1789496;79;20909;-76
2022/05/06 11:49:06;;;;;;;3.92;1.52;;;;;;;19.71;45.14;101657.48;1790514;79;21371;-76
2022/05/06 11:51:43;;;;;;;2.92;1.32;;;;;;;19.72;45.08;101660.51;1795291;79;20865;-76
2022/05/06 11:54:10;;;;;;;3.47;1.40;;;;;;;19.76;45.07;101660.77;1793565;79;21471;-76
2022/05/06 11:56:37;;;;;;;3.72;2.05;;;;;;;19.78;44.96;101664.19;1793648;79;21013;-77
2022/05/06 11:59:04;;;;;;;;;;;;;;;19.70;44.86;101668.89;1797632;78;21017;-76
2022/05/06 12:01:32;;;;;;;2.50;1.75;;;;;;;19.53;44.72;101664.72;1793155;78;20400;-77
2022/05/06 12:04:02;;;;;;;2.27;1.52;;;;;;;19.38;44.78;101659.98;1792879;78;21071;-76
2022/05/06 12:06:31;;;;;;;2.60;1.40;;;;;;;19.35;44.96;101661.41;1786952;80;20877;-77
2022/05/06 12:09:21;;;;;;;3.20;1.67;;;;;;;19.43;44.97;101655.44;1776681;78;20854;-77
2022/05/06 12:12:07;;;;;;;2.40;1.50;;;;;;;19.43;44.75;101652.36;1780340;79;20929;-77
2022/05/06 12:14:34;;;;;;;2.77;1.70;;;;;;;19.43;44.89;101650.19;1796206;78;21338;-77
2022/05/06 12:17:04;;;;;;;3.00;1.47;;;;;;;19.60;44.96;101650.46;1789554;78;20867;-77
2022/05/06 12:19:45;;;;;;;2.45;1.10;;;;;;;19.75;44.90;101652.98;1788119;77;21019;-76
2022/05/06 12:22:24;;;;;;;1.70;1.27;;;;;;;19.90;44.89;101650.20;1802822;77;21030;-76
2022/05/06 12:24:58;;;;;;;7.58;1.70;;;;;;;20.08;44.91;101655.60;1810046;77;21023;-76
2022/05/06 12:27:31;;;;;;;3.62;1.55;;;;;;;20.22;44.80;101643.25;1778962;78;21089;-76
2022/05/06 12:29:58;;;;;;;3.62;1.70;;;;;;;20.30;44.78;101653.41;1779294;80;21004;-76
2022/05/06 12:32:28;;;;;;;5.08;1.50;;;;;;;20.29;44.56;101650.39;1808639;79;20955;-76